createdAt,value
2022-11-12T00:01:43.931Z,2.90
2022-11-12T00:04:29.502Z,2.90
2022-11-12T00:07:17.551Z,2.80
2022-11-12T00:10:03.397Z,2.90
2022-11-12T00:12:48.916Z,2.90
2022-11-12T00:15:34.475Z,2.90
2022-11-12T00:18:20.168Z,2.80
2022-11-12T00:21:05.868Z,2.90
2022-11-12T00:23:51.549Z,2.80
2022-11-12T00:26:36.954Z,2.80
2022-11-12T00:29:24.722Z,2.80
2022-11-12T00:32:10.352Z,2.80
2022-11-12T00:34:55.748Z,2.80
2022-11-12T00:37:41.114Z,2.80
2022-11-12T00:40:26.476Z,2.70
2022-11-12T00:43:11.804Z,2.70
2022-11-12T00:45:57.263Z,2.80
2022-11-12T00:48:45.250Z,2.90
2022-11-12T00:51:30.689Z,2.90
2022-11-12T00:54:18.744Z,2.80
2022-11-12T00:57:03.885Z,2.80
2022-11-12T00:59:49.249Z,2.80
2022-11-12T01:02:42.326Z,2.80
2022-11-12T01:05:28.603Z,2.70
2022-11-12T01:08:14.864Z,2.80
2022-11-12T01:11:19.340Z,2.80
2022-11-12T01:14:07.244Z,2.80
2022-11-12T01:16:52.707Z,2.80
2022-11-12T01:19:38.058Z,2.80
2022-11-12T01:22:23.854Z,2.80
2022-11-12T01:25:09.443Z,2.80
2022-11-12T01:27:57.442Z,2.80
2022-11-12T01:30:45.441Z,2.80
2022-11-12T01:33:30.589Z,2.80
2022-11-12T01:36:18.637Z,2.80
2022-11-12T01:39:05.679Z,2.90
2022-11-12T01:41:50.870Z,2.80
2022-11-12T01:44:42.026Z,2.80
2022-11-12T01:47:34.124Z,2.70
2022-11-12T01:50:27.236Z,2.80
2022-11-12T01:53:13.982Z,2.70
2022-11-12T01:56:00.708Z,2.70
2022-11-12T01:58:49.151Z,2.60
2022-11-12T02:01:36.261Z,2.60
2022-11-12T02:04:25.102Z,2.70
2022-11-12T02:07:11.039Z,2.60
2022-11-12T02:09:59.806Z,2.60
2022-11-12T02:13:04.667Z,2.60
2022-11-12T02:15:50.489Z,2.60
2022-11-12T02:18:35.559Z,2.60
2022-11-12T02:21:22.131Z,2.50
2022-11-12T02:24:13.334Z,2.60
2022-11-12T02:26:59.330Z,2.60
2022-11-12T02:29:48.870Z,2.50
2022-11-12T02:32:34.454Z,2.50
2022-11-12T02:35:20.218Z,2.40
2022-11-12T02:38:07.101Z,2.20
2022-11-12T02:40:52.915Z,2.20
2022-11-12T02:43:41.886Z,2.20
2022-11-12T02:46:27.306Z,2.10
2022-11-12T02:49:12.835Z,2.10
2022-11-12T02:51:58.274Z,2.00
2022-11-12T02:54:43.866Z,2.00
2022-11-12T02:57:31.801Z,2.00
2022-11-12T03:00:18.447Z,1.90
2022-11-12T03:03:04.085Z,2.00
2022-11-12T03:06:00.872Z,2.00
2022-11-12T03:08:46.468Z,2.00
2022-11-12T03:11:31.796Z,2.10
2022-11-12T03:14:17.295Z,2.00
2022-11-12T03:17:02.448Z,2.10
2022-11-12T03:19:47.752Z,2.00
2022-11-12T03:22:32.970Z,2.10
2022-11-12T03:25:18.426Z,2.10
2022-11-12T03:28:15.389Z,2.20
2022-11-12T03:31:01.212Z,2.10
2022-11-12T03:33:47.601Z,2.10
2022-11-12T03:36:33.205Z,2.00
2022-11-12T03:39:18.397Z,1.90
2022-11-12T03:42:04.138Z,1.80
2022-11-12T03:44:49.571Z,1.70
2022-11-12T03:47:34.764Z,1.60
2022-11-12T03:50:22.254Z,1.50
2022-11-12T03:53:09.970Z,1.40
2022-11-12T03:55:55.303Z,1.40
2022-11-12T03:58:40.563Z,1.40
2022-11-12T04:01:25.959Z,1.50
2022-11-12T04:04:13.684Z,1.50
2022-11-12T04:07:17.543Z,1.40
2022-11-12T04:10:02.909Z,1.50
2022-11-12T04:13:06.658Z,1.40
2022-11-12T04:16:12.132Z,1.40
2022-11-12T04:19:18.623Z,1.40
2022-11-12T04:22:13.119Z,1.50
2022-11-12T04:25:17.069Z,1.50
2022-11-12T04:28:02.420Z,1.60
2022-11-12T04:30:47.807Z,1.60
2022-11-12T04:33:33.044Z,1.70
2022-11-12T04:36:18.461Z,1.80
2022-11-12T04:39:03.713Z,1.90
2022-11-12T04:42:07.734Z,1.90
2022-11-12T04:45:08.378Z,1.90
2022-11-12T04:47:54.072Z,1.90
2022-11-12T04:50:41.007Z,1.80
2022-11-12T04:53:27.467Z,1.80
2022-11-12T04:56:15.091Z,1.80
2022-11-12T04:59:00.282Z,1.80
2022-11-12T05:01:45.661Z,1.80
2022-11-12T05:04:31.135Z,1.70
2022-11-12T05:07:18.021Z,1.80
2022-11-12T05:10:03.543Z,1.90
2022-11-12T05:12:48.801Z,1.90
2022-11-12T05:15:34.217Z,1.90
2022-11-12T05:18:19.625Z,1.90
2022-11-12T05:21:25.139Z,1.90
2022-11-12T05:24:22.378Z,2.00
2022-11-12T05:27:18.836Z,2.00
2022-11-12T05:30:09.450Z,1.90
2022-11-12T05:32:54.635Z,1.90
2022-11-12T05:35:40.091Z,1.80
2022-11-12T05:38:25.785Z,1.80
2022-11-12T05:41:13.837Z,1.70
2022-11-12T05:44:02.627Z,1.80
2022-11-12T05:46:50.364Z,1.70
2022-11-12T05:49:35.981Z,1.70
2022-11-12T05:52:21.424Z,1.70
2022-11-12T05:55:10.186Z,1.70
2022-11-12T05:57:55.733Z,1.60
2022-11-12T06:00:41.101Z,1.80
2022-11-12T06:03:26.718Z,1.80
2022-11-12T06:06:14.894Z,1.80
2022-11-12T06:09:02.473Z,2.00
2022-11-12T06:11:47.699Z,2.00
2022-11-12T06:14:36.080Z,1.90
2022-11-12T06:17:21.231Z,2.00
2022-11-12T06:20:06.895Z,2.00
2022-11-12T06:22:52.118Z,2.00
2022-11-12T06:25:39.380Z,2.00
2022-11-12T06:28:25.535Z,1.90
2022-11-12T06:31:11.001Z,1.90
2022-11-12T06:33:56.340Z,1.90
2022-11-12T06:36:41.465Z,1.80
2022-11-12T06:39:26.962Z,1.90
2022-11-12T06:42:13.835Z,1.80
2022-11-12T06:45:00.097Z,1.80
2022-11-12T06:47:50.253Z,1.70
2022-11-12T06:50:39.037Z,1.70
2022-11-12T06:53:28.098Z,1.90
2022-11-12T06:56:14.207Z,1.80
2022-11-12T06:58:59.895Z,1.80
2022-11-12T07:01:45.670Z,1.80
2022-11-12T07:04:31.411Z,1.80
2022-11-12T07:07:18.417Z,1.70
2022-11-12T07:10:03.800Z,1.60
2022-11-12T07:12:53.177Z,1.60
2022-11-12T07:15:39.327Z,1.70
2022-11-12T07:18:25.032Z,1.70
2022-11-12T07:21:17.532Z,1.70
2022-11-12T07:24:03.210Z,1.80
2022-11-12T07:26:48.709Z,1.70
2022-11-12T07:29:47.383Z,1.80
2022-11-12T07:32:40.259Z,1.80
2022-11-12T07:35:29.466Z,1.90
2022-11-12T07:38:17.297Z,1.90
2022-11-12T07:41:07.374Z,2.00
2022-11-12T07:43:54.068Z,2.00
2022-11-12T07:46:40.511Z,2.10
2022-11-12T07:49:27.956Z,2.20
2022-11-12T07:52:13.084Z,2.10
2022-11-12T07:55:01.238Z,2.20
2022-11-12T07:57:46.375Z,2.20
2022-11-12T08:00:31.610Z,2.20
2022-11-12T08:03:17.309Z,2.20
2022-11-12T08:06:03.264Z,2.20
2022-11-12T08:08:51.994Z,2.10
2022-11-12T08:11:37.658Z,2.20
2022-11-12T08:14:25.329Z,2.20
2022-11-12T08:17:10.422Z,2.30
2022-11-12T08:19:55.784Z,2.40
2022-11-12T08:22:46.344Z,2.40
2022-11-12T08:25:34.621Z,2.60
2022-11-12T08:28:19.692Z,2.50
2022-11-12T08:31:13.233Z,2.60
2022-11-12T08:33:58.429Z,2.60
2022-11-12T08:36:43.614Z,2.60
2022-11-12T08:39:29.088Z,2.60
2022-11-12T08:42:17.899Z,2.70
2022-11-12T08:45:07.928Z,2.60
2022-11-12T08:47:53.197Z,2.60
2022-11-12T08:50:38.541Z,2.60
2022-11-12T08:53:24.786Z,2.70
2022-11-12T08:56:09.974Z,2.80
2022-11-12T08:58:55.230Z,3.00
2022-11-12T09:01:40.470Z,3.10
2022-11-12T09:04:25.712Z,3.10
2022-11-12T09:07:28.654Z,3.30
2022-11-12T09:10:16.425Z,3.40
2022-11-12T09:13:02.778Z,3.40
2022-11-12T09:15:48.921Z,3.30
2022-11-12T09:18:34.636Z,3.30
2022-11-12T09:21:24.494Z,3.30
2022-11-12T09:24:09.670Z,3.30
2022-11-12T09:26:55.132Z,3.30
2022-11-12T09:29:42.567Z,3.30
2022-11-12T09:32:28.058Z,3.30
2022-11-12T09:35:13.235Z,3.40
2022-11-12T09:37:59.587Z,3.40
2022-11-12T09:41:03.332Z,3.40
2022-11-12T09:43:52.691Z,3.30
2022-11-12T09:46:40.840Z,3.20
2022-11-12T09:49:34.287Z,3.00
2022-11-12T09:52:33.724Z,2.90
2022-11-12T09:55:32.289Z,3.10
2022-11-12T09:58:19.446Z,3.20
2022-11-12T10:01:17.561Z,3.40
2022-11-12T10:04:41.495Z,3.60
2022-11-12T10:07:39.016Z,4.00
2022-11-12T10:10:47.816Z,3.90
2022-11-12T10:13:51.492Z,3.90
2022-11-12T10:16:55.540Z,3.90
2022-11-12T10:20:13.256Z,4.10
2022-11-12T10:23:19.874Z,4.30
2022-11-12T10:26:13.667Z,4.40
2022-11-12T10:29:26.911Z,4.40
2022-11-12T10:32:16.316Z,4.50
2022-11-12T10:35:01.363Z,4.50
2022-11-12T10:37:58.890Z,4.40
2022-11-12T10:40:44.505Z,4.40
2022-11-12T10:43:29.670Z,4.40
2022-11-12T10:46:23.867Z,4.50
2022-11-12T10:49:15.867Z,4.50
2022-11-12T10:52:03.751Z,4.50
2022-11-12T10:54:55.124Z,4.60
2022-11-12T10:57:41.194Z,4.70
2022-11-12T11:00:26.728Z,4.80
2022-11-12T11:03:23.312Z,5.00
2022-11-12T11:06:17.604Z,5.20
2022-11-12T11:09:29.283Z,5.30
2022-11-12T11:12:29.874Z,5.50
2022-11-12T11:15:26.139Z,5.60
2022-11-12T11:18:14.356Z,5.70
2022-11-12T11:21:18.519Z,5.80
2022-11-12T11:24:03.958Z,6.00
2022-11-12T11:27:03.218Z,6.10
2022-11-12T11:29:52.047Z,6.20
2022-11-12T11:33:14.681Z,6.10
2022-11-12T11:36:08.954Z,6.00
2022-11-12T11:39:24.962Z,5.80
2022-11-12T11:42:45.079Z,5.80
2022-11-12T11:45:48.986Z,5.60
2022-11-12T11:48:58.685Z,5.30
2022-11-12T11:51:49.649Z,5.30
2022-11-12T11:55:04.392Z,5.30
2022-11-12T11:58:31.924Z,5.30
2022-11-12T12:01:43.905Z,5.60
2022-11-12T12:05:20.319Z,5.70
2022-11-12T12:08:25.123Z,5.50
2022-11-12T12:11:14.686Z,5.50
2022-11-12T12:14:27.404Z,5.50
2022-11-12T12:17:47.700Z,5.40
2022-11-12T12:20:44.389Z,5.40
2022-11-12T12:23:45.255Z,5.40
2022-11-12T12:26:42.850Z,5.30
2022-11-12T12:29:27.942Z,5.30
2022-11-12T12:32:34.119Z,5.40
2022-11-12T12:35:32.587Z,5.40
2022-11-12T12:38:38.704Z,5.50
2022-11-12T12:41:37.894Z,5.60
2022-11-12T12:44:43.671Z,5.60
2022-11-12T12:47:35.624Z,5.60
2022-11-12T12:50:25.130Z,5.60
2022-11-12T12:53:25.532Z,5.60
2022-11-12T12:56:13.782Z,5.30
2022-11-12T12:59:03.662Z,5.10
2022-11-12T13:02:01.064Z,5.40
2022-11-12T13:04:54.836Z,5.40
2022-11-12T13:07:48.821Z,5.70
2022-11-12T13:10:49.858Z,5.90
2022-11-12T13:13:37.687Z,6.10
2022-11-12T13:16:53.876Z,6.00
2022-11-12T13:19:54.096Z,5.70
2022-11-12T13:22:39.456Z,5.60
2022-11-12T13:25:27.845Z,5.50
2022-11-12T13:28:14.234Z,5.60
2022-11-12T13:31:01.593Z,5.60
2022-11-12T13:33:48.670Z,5.70
2022-11-12T13:36:34.442Z,5.70
2022-11-12T13:39:21.558Z,5.90
2022-11-12T13:42:37.377Z,5.80
2022-11-12T13:45:26.075Z,5.70
2022-11-12T13:48:33.282Z,5.60
2022-11-12T13:51:47.221Z,5.60
2022-11-12T13:54:35.740Z,5.30
2022-11-12T13:57:23.925Z,5.30
2022-11-12T14:00:18.223Z,5.20
2022-11-12T14:03:07.924Z,5.10
2022-11-12T14:05:53.755Z,5.10
2022-11-12T14:08:48.297Z,4.90
2022-11-12T14:11:51.457Z,4.90
2022-11-12T14:14:57.699Z,4.80
2022-11-12T14:17:43.012Z,4.70
2022-11-12T14:20:36.953Z,4.80
2022-11-12T14:23:26.105Z,4.70
2022-11-12T14:26:13.380Z,4.80
2022-11-12T14:28:59.297Z,4.70
2022-11-12T14:31:45.185Z,4.70
2022-11-12T14:34:33.036Z,4.70
2022-11-12T14:37:48.451Z,4.80
2022-11-12T14:40:37.397Z,4.70
2022-11-12T14:43:28.831Z,4.60
2022-11-12T14:46:23.401Z,4.60
2022-11-12T14:49:44.011Z,4.30
2022-11-12T14:52:37.065Z,4.30
2022-11-12T14:55:35.868Z,4.30
2022-11-12T14:58:26.932Z,4.30
2022-11-12T15:02:08.860Z,4.30
2022-11-12T15:04:37.014Z,4.30
2022-11-12T15:07:36.047Z,4.20
2022-11-12T15:10:41.441Z,4.20
2022-11-12T15:13:27.915Z,4.10
2022-11-12T15:16:23.618Z,4.00
2022-11-12T15:19:21.952Z,3.90
2022-11-12T15:22:18.989Z,3.80
2022-11-12T15:25:12.157Z,3.80
2022-11-12T15:28:20.996Z,3.70
2022-11-12T15:31:17.201Z,3.60
2022-11-12T15:34:28.043Z,3.60
2022-11-12T15:37:28.421Z,3.50
2022-11-12T15:40:21.580Z,3.50
2022-11-12T15:43:16.642Z,3.40
2022-11-12T15:46:02.357Z,3.30
2022-11-12T15:48:55.717Z,3.40
2022-11-12T15:51:41.798Z,3.20
2022-11-12T15:54:26.910Z,3.30
2022-11-12T15:57:18.742Z,3.30
2022-11-12T16:00:26.444Z,3.20
2022-11-12T16:03:16.087Z,3.30
2022-11-12T16:06:08.387Z,3.20
2022-11-12T16:08:54.689Z,3.20
2022-11-12T16:11:40.033Z,3.10
2022-11-12T16:14:27.780Z,3.10
2022-11-12T16:17:17.971Z,3.00
2022-11-12T16:20:12.681Z,3.00
2022-11-12T16:22:58.369Z,2.90
2022-11-12T16:25:44.661Z,2.90
2022-11-12T16:28:30.249Z,2.90
2022-11-12T16:31:15.978Z,2.80
2022-11-12T16:34:01.511Z,2.80
2022-11-12T16:36:48.292Z,2.80
2022-11-12T16:39:33.831Z,2.80
2022-11-12T16:42:19.108Z,2.90
2022-11-12T16:45:09.308Z,2.80
2022-11-12T16:47:56.037Z,2.90
2022-11-12T16:50:41.434Z,2.90
2022-11-12T16:53:27.203Z,2.90
2022-11-12T16:56:21.566Z,2.90
2022-11-12T16:59:06.949Z,2.90
2022-11-12T17:01:53.153Z,2.80
2022-11-12T17:04:38.438Z,2.80
2022-11-12T17:07:24.124Z,2.80
2022-11-12T17:10:09.924Z,2.90
2022-11-12T17:12:55.450Z,2.80
2022-11-12T17:15:40.520Z,2.90
2022-11-12T17:18:26.060Z,2.80
2022-11-12T17:21:17.782Z,2.70
2022-11-12T17:24:03.357Z,2.80
2022-11-12T17:26:48.974Z,2.70
2022-11-12T17:29:34.935Z,2.70
2022-11-12T17:32:26.326Z,2.70
2022-11-12T17:35:17.144Z,2.70
2022-11-12T17:38:02.380Z,2.70
2022-11-12T17:40:54.957Z,2.80
2022-11-12T17:43:44.624Z,2.80
2022-11-12T17:46:30.651Z,2.80
2022-11-12T17:49:18.978Z,2.80
2022-11-12T17:52:04.568Z,2.90
2022-11-12T17:54:49.984Z,2.90
2022-11-12T17:57:35.161Z,2.80
2022-11-12T18:00:20.707Z,2.80
2022-11-12T18:03:08.525Z,2.90
2022-11-12T18:05:59.060Z,2.80
2022-11-12T18:08:45.733Z,2.80
2022-11-12T18:11:40.404Z,2.80
2022-11-12T18:14:25.993Z,2.90
2022-11-12T18:17:11.572Z,2.80
2022-11-12T18:19:57.067Z,2.90
2022-11-12T18:22:45.005Z,2.80
2022-11-12T18:25:30.458Z,2.80
2022-11-12T18:28:15.703Z,2.90
2022-11-12T18:31:05.909Z,2.90
2022-11-12T18:33:51.636Z,2.80
2022-11-12T18:36:39.279Z,2.80
2022-11-12T18:39:26.390Z,2.90
2022-11-12T18:42:11.863Z,2.90
2022-11-12T18:44:57.284Z,2.90
2022-11-12T18:47:42.747Z,2.90
2022-11-12T18:50:28.493Z,2.80
2022-11-12T18:53:13.858Z,2.80
2022-11-12T18:56:01.856Z,2.80
2022-11-12T18:58:47.420Z,2.80
2022-11-12T19:01:33.399Z,2.80
2022-11-12T19:04:19.077Z,2.70
2022-11-12T19:07:05.033Z,2.70
2022-11-12T19:09:50.641Z,2.70
2022-11-12T19:12:35.733Z,2.70
2022-11-12T19:15:26.465Z,2.60
2022-11-12T19:18:14.852Z,2.60
2022-11-12T19:21:07.589Z,2.50
2022-11-12T19:23:54.942Z,2.50
2022-11-12T19:26:40.508Z,2.40
2022-11-12T19:29:26.193Z,2.40
2022-11-12T19:32:12.846Z,2.40
2022-11-12T19:34:57.948Z,2.40
2022-11-12T19:37:45.758Z,2.30
2022-11-12T19:40:33.537Z,2.30
2022-11-12T19:43:22.125Z,2.20
2022-11-12T19:46:08.592Z,2.20
2022-11-12T19:48:54.882Z,2.10
2022-11-12T19:51:42.444Z,2.00
2022-11-12T19:54:27.887Z,2.00
2022-11-12T19:57:13.192Z,1.90
2022-11-12T19:59:58.568Z,1.90
2022-11-12T20:02:43.966Z,1.90
2022-11-12T20:05:32.582Z,1.80
2022-11-12T20:08:18.391Z,1.70
2022-11-12T20:11:03.814Z,1.70
2022-11-12T20:13:53.091Z,1.70
2022-11-12T20:16:39.572Z,1.60
2022-11-12T20:19:26.338Z,1.50
2022-11-12T20:22:11.904Z,1.60
2022-11-12T20:25:00.044Z,1.60
2022-11-12T20:27:45.322Z,1.60
2022-11-12T20:30:31.009Z,1.60
2022-11-12T20:33:18.648Z,1.60
2022-11-12T20:36:15.344Z,1.40
2022-11-12T20:39:00.976Z,1.50
2022-11-12T20:41:54.962Z,1.40
2022-11-12T20:44:41.197Z,1.50
2022-11-12T20:47:26.844Z,1.40
2022-11-12T20:50:12.118Z,1.40
2022-11-12T20:52:57.575Z,1.50
2022-11-12T20:55:42.844Z,1.50
2022-11-12T20:58:29.728Z,1.40
2022-11-12T21:01:19.721Z,1.30
2022-11-12T21:04:04.888Z,1.40
2022-11-12T21:06:50.258Z,1.50
2022-11-12T21:09:35.413Z,1.40
2022-11-12T21:12:20.410Z,1.50
2022-11-12T21:15:09.234Z,1.40
2022-11-12T21:17:55.311Z,1.50
2022-11-12T21:20:40.774Z,1.40
2022-11-12T21:23:31.988Z,1.50
2022-11-12T21:26:20.071Z,1.40
2022-11-12T21:29:06.990Z,1.30
2022-11-12T21:31:52.800Z,1.30
2022-11-12T21:34:38.294Z,1.30
2022-11-12T21:37:23.451Z,1.40
2022-11-12T21:40:09.588Z,1.30
2022-11-12T21:42:55.408Z,1.20
2022-11-12T21:45:47.367Z,1.20
2022-11-12T21:48:33.018Z,1.20
2022-11-12T21:51:20.532Z,1.10
2022-11-12T21:54:07.314Z,1.00
2022-11-12T21:56:52.704Z,1.00
2022-11-12T21:59:38.322Z,0.90
2022-11-12T22:02:24.067Z,0.80
2022-11-12T22:05:09.353Z,0.70
2022-11-12T22:07:55.309Z,0.60
2022-11-12T22:10:40.429Z,0.50
2022-11-12T22:13:27.508Z,0.50
2022-11-12T22:16:24.739Z,0.50
2022-11-12T22:19:11.325Z,0.50
2022-11-12T22:21:57.044Z,0.50
2022-11-12T22:24:42.560Z,0.40
2022-11-12T22:27:31.301Z,0.30
2022-11-12T22:30:16.928Z,0.30
2022-11-12T22:33:02.123Z,0.20
2022-11-12T22:35:47.501Z,0.30
2022-11-12T22:39:48.765Z,0.30
2022-11-12T22:42:34.218Z,0.20
2022-11-12T22:45:19.611Z,0.20
2022-11-12T22:48:05.332Z,0.30
2022-11-12T22:50:50.539Z,0.30
2022-11-12T22:53:35.959Z,0.30
2022-11-12T22:56:22.315Z,0.40
2022-11-12T22:59:10.006Z,0.50
2022-11-12T23:01:57.848Z,0.60
2022-11-12T23:04:45.517Z,0.60
2022-11-12T23:07:30.585Z,0.60
2022-11-12T23:10:16.087Z,0.60
2022-11-12T23:13:01.244Z,0.60
2022-11-12T23:15:47.136Z,0.70
2022-11-12T23:18:32.714Z,0.60
2022-11-12T23:21:21.025Z,0.50
2022-11-12T23:24:07.191Z,0.50
2022-11-12T23:26:52.589Z,0.40
2022-11-12T23:29:40.031Z,0.40
2022-11-12T23:32:26.637Z,0.30
2022-11-12T23:35:11.934Z,0.30
2022-11-12T23:37:57.606Z,0.20
2022-11-12T23:40:51.376Z,0.20
2022-11-12T23:43:39.714Z,0.10
2022-11-12T23:46:25.660Z,0.10
2022-11-12T23:49:11.525Z,0.10
2022-11-12T23:51:56.928Z,0.10
2022-11-12T23:54:42.391Z,0.10
2022-11-12T23:57:27.910Z,0.10
